createdAt,value
2023-12-27T00:01:03.960Z,50.70
2023-12-27T00:04:07.472Z,51.04
2023-12-27T00:07:10.113Z,50.77
2023-12-27T00:10:12.844Z,51.05
2023-12-27T00:13:15.531Z,50.64
2023-12-27T00:16:19.406Z,50.77
2023-12-27T00:19:21.971Z,50.88
2023-12-27T00:22:25.439Z,51.01
2023-12-27T00:25:28.160Z,51.03
2023-12-27T00:28:30.521Z,51.07
2023-12-27T00:31:34.400Z,50.85
2023-12-27T00:34:37.410Z,50.76
2023-12-27T00:37:39.986Z,50.92
2023-12-27T00:40:42.662Z,51.07
2023-12-27T00:43:45.005Z,50.56
2023-12-27T00:46:48.851Z,50.54
2023-12-27T00:49:51.394Z,51.01
2023-12-27T00:52:53.941Z,50.98
2023-12-27T00:55:56.528Z,50.46
2023-12-27T00:59:00.334Z,50.68
2023-12-27T01:02:04.515Z,50.48
2023-12-27T01:05:07.643Z,50.75
2023-12-27T01:08:10.174Z,50.57
2023-12-27T01:11:12.778Z,50.81
2023-12-27T01:14:15.274Z,50.70
2023-12-27T01:17:19.033Z,50.79
2023-12-27T01:20:21.454Z,50.89
2023-12-27T01:23:23.923Z,50.32
2023-12-27T01:26:26.510Z,50.38
2023-12-27T01:29:28.946Z,50.76
2023-12-27T01:32:33.471Z,50.47
2023-12-27T01:35:35.919Z,50.85
2023-12-27T01:38:38.365Z,50.50
2023-12-27T01:41:40.785Z,50.79
2023-12-27T01:44:43.767Z,50.71
2023-12-27T01:47:48.537Z,50.27
2023-12-27T01:50:51.764Z,50.46
2023-12-27T01:53:54.361Z,50.75
2023-12-27T01:56:57.436Z,50.53
2023-12-27T02:00:01.117Z,50.53
2023-12-27T02:03:05.444Z,50.40
2023-12-27T02:06:08.338Z,50.81
2023-12-27T02:09:11.574Z,50.37
2023-12-27T02:12:25.005Z,50.84
2023-12-27T02:15:27.827Z,50.83
2023-12-27T02:18:32.213Z,50.50
2023-12-27T02:21:36.610Z,50.24
2023-12-27T02:24:41.718Z,50.29
2023-12-27T02:27:46.071Z,50.61
2023-12-27T02:30:48.558Z,50.61
2023-12-27T02:33:51.157Z,50.65
2023-12-27T02:36:53.844Z,50.53
2023-12-27T02:40:00.306Z,50.69
2023-12-27T02:43:02.961Z,50.73
2023-12-27T02:46:05.822Z,50.81
2023-12-27T02:49:08.308Z,50.30
2023-12-27T02:52:10.816Z,50.58
2023-12-27T02:55:14.583Z,50.45
2023-12-27T02:58:17.001Z,50.60
2023-12-27T03:01:19.448Z,50.61
2023-12-27T03:04:21.915Z,50.65
2023-12-27T03:07:24.405Z,50.51
2023-12-27T03:10:28.161Z,50.89
2023-12-27T03:13:30.672Z,50.77
2023-12-27T03:16:33.203Z,50.57
2023-12-27T03:19:36.001Z,50.40
2023-12-27T03:22:38.510Z,50.40
2023-12-27T03:25:42.292Z,50.25
2023-12-27T03:28:44.784Z,50.77
2023-12-27T03:31:47.265Z,50.79
2023-12-27T03:34:49.738Z,50.74
2023-12-27T03:37:52.144Z,50.63
2023-12-27T03:40:56.905Z,50.45
2023-12-27T03:44:00.496Z,50.59
2023-12-27T03:47:03.532Z,50.46
2023-12-27T03:50:06.728Z,50.76
2023-12-27T03:53:09.324Z,50.67
2023-12-27T03:56:13.091Z,50.32
2023-12-27T03:59:16.337Z,50.21
2023-12-27T04:02:18.825Z,50.61
2023-12-27T04:05:21.730Z,50.39
2023-12-27T04:08:24.751Z,50.73
2023-12-27T04:11:28.564Z,50.81
2023-12-27T04:14:31.443Z,50.73
2023-12-27T04:17:33.944Z,50.38
2023-12-27T04:20:36.609Z,50.46
2023-12-27T04:23:39.049Z,50.10
2023-12-27T04:26:43.188Z,50.18
2023-12-27T04:29:46.074Z,49.75
2023-12-27T04:32:49.025Z,49.80
2023-12-27T04:35:51.465Z,49.70
2023-12-27T04:38:54.002Z,49.76
2023-12-27T04:41:57.896Z,49.47
2023-12-27T04:45:00.725Z,49.53
2023-12-27T04:48:03.368Z,48.93
2023-12-27T04:51:06.523Z,48.74
2023-12-27T04:54:08.960Z,48.98
2023-12-27T04:57:12.850Z,48.64
2023-12-27T05:00:15.748Z,48.54
2023-12-27T05:03:18.314Z,47.99
2023-12-27T05:06:20.915Z,48.07
2023-12-27T05:09:23.561Z,47.35
2023-12-27T05:12:27.418Z,47.14
2023-12-27T05:15:30.069Z,47.21
2023-12-27T05:18:32.601Z,47.37
2023-12-27T05:21:35.501Z,46.94
2023-12-27T05:24:38.064Z,46.67
2023-12-27T05:27:41.930Z,46.72
2023-12-27T05:30:44.630Z,47.03
2023-12-27T05:33:47.321Z,46.62
2023-12-27T05:36:49.875Z,47.08
2023-12-27T05:39:52.344Z,46.87
2023-12-27T05:42:56.506Z,46.80
2023-12-27T05:45:59.116Z,47.13
2023-12-27T05:49:01.672Z,47.31
2023-12-27T05:52:04.545Z,46.83
2023-12-27T05:55:08.529Z,47.33
2023-12-27T05:58:12.286Z,47.16
2023-12-27T06:01:14.825Z,47.59
2023-12-27T06:04:17.669Z,47.23
2023-12-27T06:07:20.192Z,47.54
2023-12-27T06:10:22.794Z,47.29
2023-12-27T06:13:27.137Z,47.30
2023-12-27T06:16:29.673Z,47.49
2023-12-27T06:19:33.177Z,47.84
2023-12-27T06:22:35.672Z,47.56
2023-12-27T06:25:38.338Z,47.69
2023-12-27T06:28:43.322Z,48.04
2023-12-27T06:31:45.911Z,47.70
2023-12-27T06:34:48.376Z,47.98
2023-12-27T06:37:50.953Z,47.84
2023-12-27T06:40:53.732Z,47.80
2023-12-27T06:43:57.729Z,47.65
2023-12-27T06:47:00.381Z,47.41
2023-12-27T06:50:05.191Z,47.74
2023-12-27T06:53:07.801Z,47.51
2023-12-27T06:56:11.139Z,47.20
2023-12-27T06:59:14.925Z,47.57
2023-12-27T07:02:17.498Z,47.09
2023-12-27T07:05:19.953Z,47.59
2023-12-27T07:08:22.487Z,47.47
2023-12-27T07:11:26.318Z,47.29
2023-12-27T07:14:30.312Z,47.48
2023-12-27T07:17:33.460Z,47.73
2023-12-27T07:20:35.942Z,47.77
2023-12-27T07:23:38.450Z,47.74
2023-12-27T07:26:40.918Z,47.98
2023-12-27T07:29:44.889Z,47.56
2023-12-27T07:32:47.486Z,47.95
2023-12-27T07:35:50.537Z,47.91
2023-12-27T07:38:53.327Z,48.07
2023-12-27T07:41:55.797Z,47.81
2023-12-27T07:44:59.659Z,47.69
2023-12-27T07:48:02.706Z,47.99
2023-12-27T07:51:05.983Z,47.69
2023-12-27T07:54:08.940Z,47.98
2023-12-27T07:57:11.969Z,48.15
2023-12-27T08:00:17.082Z,47.83
2023-12-27T08:03:19.571Z,47.76
2023-12-27T08:06:22.719Z,47.71
2023-12-27T08:09:27.487Z,48.04
2023-12-27T08:12:30.080Z,47.54
2023-12-27T08:15:33.994Z,47.89
2023-12-27T08:18:37.008Z,47.28
2023-12-27T08:21:39.694Z,47.32
2023-12-27T08:24:42.063Z,47.39
2023-12-27T08:27:44.901Z,47.64
2023-12-27T08:30:48.753Z,47.10
2023-12-27T08:33:51.669Z,47.01
2023-12-27T08:36:54.359Z,46.80
2023-12-27T08:39:56.905Z,46.97
2023-12-27T08:42:59.722Z,46.79
2023-12-27T08:46:03.767Z,46.56
2023-12-27T08:49:06.344Z,46.46
2023-12-27T08:52:09.813Z,46.80
2023-12-27T08:55:13.553Z,46.35
2023-12-27T08:58:16.038Z,46.71
2023-12-27T09:01:20.471Z,46.58
2023-12-27T09:04:25.370Z,46.68
2023-12-27T09:07:28.240Z,45.91
2023-12-27T09:10:30.741Z,46.34
2023-12-27T09:13:33.136Z,46.29
2023-12-27T09:16:37.417Z,46.61
2023-12-27T09:19:39.903Z,46.50
2023-12-27T09:22:42.496Z,45.79
2023-12-27T09:25:44.995Z,45.75
2023-12-27T09:28:47.672Z,45.77
2023-12-27T09:31:52.076Z,46.01
2023-12-27T09:34:54.685Z,45.62
2023-12-27T09:38:03.067Z,45.99
2023-12-27T09:41:05.931Z,45.65
2023-12-27T09:44:12.125Z,45.93
2023-12-27T09:47:18.262Z,45.93
2023-12-27T09:50:23.107Z,45.65
2023-12-27T09:53:26.490Z,45.50
2023-12-27T09:56:30.815Z,45.80
2023-12-27T09:59:40.151Z,45.39
2023-12-27T10:02:46.737Z,45.34
2023-12-27T10:06:16.568Z,45.37
2023-12-27T10:09:19.543Z,45.39
2023-12-27T10:12:22.575Z,45.74
2023-12-27T10:15:25.381Z,45.65
2023-12-27T10:18:29.523Z,45.75
2023-12-27T10:21:41.921Z,45.25
2023-12-27T10:24:44.472Z,45.67
2023-12-27T10:27:46.867Z,45.67
2023-12-27T10:30:49.454Z,45.65
2023-12-27T10:33:53.604Z,45.65
2023-12-27T10:36:56.524Z,45.71
2023-12-27T10:39:59.453Z,46.52
2023-12-27T10:43:02.320Z,46.54
2023-12-27T10:46:09.726Z,46.23
2023-12-27T10:49:15.346Z,46.73
2023-12-27T10:52:18.811Z,46.82
2023-12-27T10:55:22.181Z,46.64
2023-12-27T10:58:25.397Z,46.70
2023-12-27T11:01:29.267Z,46.66
2023-12-27T11:04:33.460Z,46.90
2023-12-27T11:07:41.259Z,46.80
2023-12-27T11:10:46.008Z,46.88
2023-12-27T11:13:51.165Z,46.88
2023-12-27T11:16:57.120Z,47.15
2023-12-27T11:20:01.899Z,46.96
2023-12-27T11:23:05.523Z,47.00
2023-12-27T11:26:08.220Z,47.13
2023-12-27T11:29:13.087Z,47.33
2023-12-27T11:32:17.254Z,47.13
2023-12-27T11:35:26.238Z,46.96
2023-12-27T11:38:29.367Z,46.97
2023-12-27T11:41:31.980Z,46.38
2023-12-27T11:44:42.077Z,46.83
2023-12-27T11:47:47.550Z,46.77
2023-12-27T11:50:51.721Z,46.43
2023-12-27T11:53:54.630Z,46.25
2023-12-27T11:56:58.172Z,46.58
2023-12-27T12:00:00.619Z,46.39
2023-12-27T12:03:10.269Z,46.69
2023-12-27T12:06:31.314Z,46.62
2023-12-27T12:09:37.806Z,46.47
2023-12-27T12:12:40.554Z,46.39
2023-12-27T12:15:43.501Z,46.62
2023-12-27T12:18:46.975Z,46.59
2023-12-27T12:21:53.410Z,46.87
2023-12-27T12:25:07.270Z,46.75
2023-12-27T12:28:09.962Z,47.26
2023-12-27T12:31:13.648Z,47.21
2023-12-27T12:34:17.676Z,46.87
2023-12-27T12:37:21.898Z,46.95
2023-12-27T12:40:24.450Z,46.92
2023-12-27T12:43:27.372Z,46.94
2023-12-27T12:46:30.107Z,47.21
2023-12-27T12:49:34.141Z,47.29
2023-12-27T12:52:38.602Z,47.36
2023-12-27T12:55:42.944Z,47.65
2023-12-27T12:58:45.652Z,47.19
2023-12-27T13:01:48.494Z,47.76
2023-12-27T13:04:52.164Z,47.26
2023-12-27T13:07:56.361Z,47.59
2023-12-27T13:10:59.209Z,47.84
2023-12-27T13:14:01.997Z,47.45
2023-12-27T13:17:05.035Z,47.67
2023-12-27T13:20:10.715Z,47.69
2023-12-27T13:23:17.794Z,47.57
2023-12-27T13:26:21.035Z,47.67
2023-12-27T13:29:23.691Z,47.97
2023-12-27T13:32:26.209Z,47.89
2023-12-27T13:35:30.155Z,47.97
2023-12-27T13:38:33.998Z,47.57
2023-12-27T13:41:36.435Z,47.83
2023-12-27T13:44:39.326Z,48.02
2023-12-27T13:47:49.306Z,48.03
2023-12-27T13:50:54.210Z,47.64
2023-12-27T13:54:01.258Z,47.65
2023-12-27T13:57:09.799Z,47.70
2023-12-27T14:00:16.131Z,47.93
2023-12-27T14:03:19.397Z,48.03
2023-12-27T14:06:23.110Z,47.56
2023-12-27T14:09:27.038Z,47.65
2023-12-27T14:12:30.012Z,47.69
2023-12-27T14:15:32.542Z,48.15
2023-12-27T14:18:35.150Z,48.27
2023-12-27T14:21:37.855Z,48.22
2023-12-27T14:24:41.905Z,47.79
2023-12-27T14:27:44.670Z,47.75
2023-12-27T14:30:47.439Z,48.46
2023-12-27T14:33:50.160Z,48.46
2023-12-27T14:36:52.726Z,48.58
2023-12-27T14:39:56.673Z,48.26
2023-12-27T14:43:00.113Z,48.25
2023-12-27T14:46:04.728Z,48.08
2023-12-27T14:49:07.641Z,48.46
2023-12-27T14:52:10.040Z,47.96
2023-12-27T14:55:13.994Z,48.23
2023-12-27T14:58:17.139Z,48.20
2023-12-27T15:01:19.750Z,48.29
2023-12-27T15:04:24.001Z,48.10
2023-12-27T15:07:26.911Z,47.83
2023-12-27T15:10:30.575Z,48.12
2023-12-27T15:13:33.354Z,48.16
2023-12-27T15:16:35.789Z,48.28
2023-12-27T15:19:38.509Z,47.67
2023-12-27T15:22:41.017Z,47.99
2023-12-27T15:25:46.103Z,47.75
2023-12-27T15:28:49.582Z,48.09
2023-12-27T15:31:52.051Z,48.32
2023-12-27T15:34:56.610Z,48.28
2023-12-27T15:37:59.536Z,48.25
2023-12-27T15:41:04.521Z,48.08
2023-12-27T15:44:07.307Z,48.21
2023-12-27T15:47:10.365Z,48.38
2023-12-27T15:50:13.004Z,47.95
2023-12-27T15:53:15.341Z,48.31
2023-12-27T15:56:27.379Z,47.85
2023-12-27T15:59:29.885Z,48.01
2023-12-27T16:02:32.466Z,48.42
2023-12-27T16:05:34.962Z,48.91
2023-12-27T16:08:37.456Z,48.91
2023-12-27T16:11:44.241Z,48.83
2023-12-27T16:14:46.856Z,48.39
2023-12-27T16:17:49.548Z,48.78
2023-12-27T16:20:52.135Z,48.64
2023-12-27T16:23:54.953Z,48.63
2023-12-27T16:26:59.024Z,48.59
2023-12-27T16:30:01.613Z,48.51
2023-12-27T16:33:04.243Z,48.85
2023-12-27T16:36:07.297Z,48.35
2023-12-27T16:39:10.296Z,48.52
2023-12-27T16:42:15.689Z,48.61
2023-12-27T16:45:25.262Z,48.49
2023-12-27T16:48:27.874Z,48.57
2023-12-27T16:51:30.388Z,48.18
2023-12-27T16:54:33.045Z,48.41
2023-12-27T16:57:37.123Z,48.36
2023-12-27T17:00:40.244Z,48.51
2023-12-27T17:03:43.088Z,48.80
2023-12-27T17:06:45.864Z,48.69
2023-12-27T17:09:49.489Z,48.36
2023-12-27T17:12:54.685Z,48.57
2023-12-27T17:15:57.686Z,48.75
2023-12-27T17:19:00.438Z,48.65
2023-12-27T17:22:03.000Z,48.75
2023-12-27T17:25:09.390Z,48.48
2023-12-27T17:28:13.154Z,48.47
2023-12-27T17:31:15.651Z,48.33
2023-12-27T17:34:18.248Z,48.74
2023-12-27T17:37:21.148Z,48.55
2023-12-27T17:40:23.613Z,48.40
2023-12-27T17:43:27.971Z,48.39
2023-12-27T17:46:30.417Z,48.63
2023-12-27T17:49:33.072Z,48.60
2023-12-27T17:52:36.088Z,48.72
2023-12-27T17:55:38.584Z,48.64
2023-12-27T17:58:42.463Z,48.58
2023-12-27T18:01:45.093Z,48.86
2023-12-27T18:04:48.960Z,48.52
2023-12-27T18:07:51.569Z,48.17
2023-12-27T18:10:54.054Z,48.20
2023-12-27T18:13:57.816Z,48.01
2023-12-27T18:17:00.785Z,48.17
2023-12-27T18:20:04.778Z,48.99
2023-12-27T18:23:07.637Z,48.93
2023-12-27T18:26:10.080Z,48.89
2023-12-27T18:29:14.290Z,48.58
2023-12-27T18:32:16.797Z,48.34
2023-12-27T18:35:19.481Z,48.19
2023-12-27T18:38:21.802Z,48.13
2023-12-27T18:41:24.216Z,48.11
2023-12-27T18:44:27.998Z,48.00
2023-12-27T18:47:30.765Z,48.23
2023-12-27T18:50:33.240Z,48.03
2023-12-27T18:53:35.885Z,47.79
2023-12-27T18:56:38.342Z,47.88
2023-12-27T18:59:42.214Z,47.82
2023-12-27T19:02:44.774Z,48.04
2023-12-27T19:05:49.081Z,48.47
2023-12-27T19:08:52.023Z,48.48
2023-12-27T19:11:54.490Z,48.45
2023-12-27T19:15:00.523Z,48.54
2023-12-27T19:18:04.738Z,48.58
2023-12-27T19:21:08.751Z,48.98
2023-12-27T19:24:11.248Z,48.62
2023-12-27T19:27:14.040Z,48.88
2023-12-27T19:30:18.179Z,48.99
2023-12-27T19:33:20.808Z,48.89
2023-12-27T19:36:23.230Z,48.97
2023-12-27T19:39:25.749Z,49.21
2023-12-27T19:42:28.325Z,48.77
2023-12-27T19:45:32.275Z,48.70
2023-12-27T19:48:34.842Z,49.15
2023-12-27T19:51:37.436Z,49.02
2023-12-27T19:54:41.236Z,49.09
2023-12-27T19:57:44.025Z,48.85
2023-12-27T20:00:49.413Z,48.62
2023-12-27T20:03:52.866Z,48.86
2023-12-27T20:06:55.538Z,49.19
2023-12-27T20:09:58.072Z,48.87
2023-12-27T20:13:04.566Z,48.76
2023-12-27T20:16:08.954Z,48.79
2023-12-27T20:19:11.540Z,48.67
2023-12-27T20:22:14.088Z,48.78
2023-12-27T20:25:17.665Z,49.16
2023-12-27T20:28:20.792Z,49.15
2023-12-27T20:31:24.654Z,49.15
2023-12-27T20:34:27.218Z,49.23
2023-12-27T20:37:29.768Z,48.75
2023-12-27T20:40:32.629Z,49.11
2023-12-27T20:43:36.816Z,48.73
2023-12-27T20:46:40.552Z,49.12
2023-12-27T20:49:43.286Z,49.00
2023-12-27T20:52:45.740Z,48.63
2023-12-27T20:55:48.117Z,48.60
2023-12-27T20:58:50.540Z,49.21
2023-12-27T21:01:54.261Z,48.91
2023-12-27T21:04:56.728Z,48.69
2023-12-27T21:07:59.444Z,48.75
2023-12-27T21:11:02.234Z,48.70
2023-12-27T21:14:04.662Z,48.80
2023-12-27T21:17:08.607Z,49.16
2023-12-27T21:20:13.049Z,48.96
2023-12-27T21:23:15.469Z,49.23
2023-12-27T21:26:18.940Z,49.08
2023-12-27T21:29:21.525Z,49.15
2023-12-27T21:32:25.425Z,49.24
2023-12-27T21:35:28.102Z,49.55
2023-12-27T21:38:30.560Z,49.20
2023-12-27T21:41:33.077Z,49.21
2023-12-27T21:44:35.955Z,49.62
2023-12-27T21:47:40.820Z,49.22
2023-12-27T21:50:43.997Z,49.69
2023-12-27T21:53:46.836Z,49.19
2023-12-27T21:56:49.252Z,49.20
2023-12-27T21:59:51.676Z,49.57
2023-12-27T22:02:58.363Z,49.51
2023-12-27T22:06:00.801Z,49.43
2023-12-27T22:09:03.530Z,49.67
2023-12-27T22:12:07.740Z,49.55
2023-12-27T22:15:11.139Z,49.32
2023-12-27T22:18:15.262Z,49.66
2023-12-27T22:21:19.202Z,49.38
2023-12-27T22:24:21.807Z,49.48
2023-12-27T22:27:24.312Z,49.57
2023-12-27T22:30:26.936Z,49.53
2023-12-27T22:33:30.831Z,49.37
2023-12-27T22:36:33.405Z,49.51
2023-12-27T22:39:35.882Z,49.25
2023-12-27T22:42:38.663Z,49.79
2023-12-27T22:45:41.069Z,49.70
2023-12-27T22:48:44.991Z,49.50
2023-12-27T22:51:49.144Z,49.59
2023-12-27T22:54:51.657Z,49.27
2023-12-27T22:57:54.201Z,49.53
2023-12-27T23:00:56.852Z,49.30
2023-12-27T23:04:00.839Z,49.72
2023-12-27T23:07:03.665Z,49.49
2023-12-27T23:10:06.905Z,49.50
2023-12-27T23:13:09.341Z,49.74
2023-12-27T23:16:11.770Z,49.53
2023-12-27T23:19:15.721Z,49.66
2023-12-27T23:22:18.556Z,49.46
2023-12-27T23:25:21.064Z,49.42
2023-12-27T23:28:23.869Z,49.68
2023-12-27T23:31:26.529Z,49.66
2023-12-27T23:34:30.431Z,49.58
2023-12-27T23:37:32.944Z,49.83
2023-12-27T23:40:38.001Z,49.84
2023-12-27T23:43:40.463Z,49.60
2023-12-27T23:46:42.878Z,49.59
2023-12-27T23:49:46.687Z,49.95
2023-12-27T23:52:49.279Z,50.17
2023-12-27T23:55:52.015Z,50.06
2023-12-27T23:58:54.441Z,49.94
